createdAt,value
2022-10-18T00:02:06.427Z,59.78
2022-10-18T00:04:36.220Z,63.72
2022-10-18T00:07:08.171Z,55.53
2022-10-18T00:09:39.053Z,56.58
2022-10-18T00:12:09.452Z,60.38
2022-10-18T00:14:39.600Z,63.92
2022-10-18T00:17:20.485Z,62.38
2022-10-18T00:19:50.668Z,59.83
2022-10-18T00:22:23.715Z,71.20
2022-10-18T00:24:55.221Z,61.03
2022-10-18T00:27:24.493Z,65.20
2022-10-18T00:29:55.661Z,65.93
2022-10-18T00:32:31.056Z,62.70
2022-10-18T00:35:00.340Z,65.00
2022-10-18T00:37:29.487Z,66.80
2022-10-18T00:39:59.087Z,53.87
2022-10-18T00:42:33.106Z,59.55
2022-10-18T00:45:16.496Z,58.95
2022-10-18T00:47:52.038Z,55.17
2022-10-18T00:50:23.033Z,60.90
2022-10-18T00:52:57.448Z,64.40
2022-10-18T00:55:28.882Z,57.50
2022-10-18T00:57:59.689Z,67.95
2022-10-18T01:00:28.425Z,63.85
2022-10-18T01:03:04.897Z,66.20
2022-10-18T01:05:42.852Z,54.30
2022-10-18T01:08:58.211Z,57.45
2022-10-18T01:11:40.179Z,58.50
2022-10-18T01:14:21.111Z,56.75
2022-10-18T01:16:56.524Z,55.67
2022-10-18T01:19:50.964Z,64.35
2022-10-18T01:22:26.576Z,62.33
2022-10-18T01:25:05.797Z,54.53
2022-10-18T01:27:47.231Z,60.10
2022-10-18T01:30:47.230Z,65.72
2022-10-18T01:35:56.077Z,61.67
2022-10-18T01:38:27.471Z,67.13
2022-10-18T01:40:58.613Z,66.00
2022-10-18T01:43:29.139Z,59.83
2022-10-18T01:46:01.858Z,62.28
2022-10-18T01:48:32.543Z,66.38
2022-10-18T01:51:04.576Z,57.60
2022-10-18T01:53:36.996Z,64.63
2022-10-18T01:56:39.677Z,62.85
2022-10-18T01:59:26.757Z,54.33
2022-10-18T02:02:08.019Z,57.00
2022-10-18T02:04:46.151Z,59.20
2022-10-18T02:07:26.288Z,62.85
2022-10-18T02:10:08.245Z,65.15
2022-10-18T02:13:03.395Z,67.03
2022-10-18T02:15:39.439Z,67.50
2022-10-18T02:18:14.979Z,64.82
2022-10-18T02:20:43.879Z,66.82
2022-10-18T02:23:19.192Z,58.83
2022-10-18T02:25:49.162Z,60.35
2022-10-18T02:28:18.359Z,55.97
2022-10-18T02:31:00.644Z,60.75
2022-10-18T02:33:45.674Z,68.65
2022-10-18T02:36:45.004Z,65.50
2022-10-18T02:39:38.927Z,66.40
2022-10-18T02:42:18.062Z,61.65
2022-10-18T02:45:06.623Z,60.30
2022-10-18T02:47:53.239Z,55.90
2022-10-18T02:50:58.166Z,62.30
2022-10-18T02:57:03.243Z,82.90
2022-10-18T03:00:22.627Z,62.47
2022-10-18T03:03:02.415Z,58.38
2022-10-18T03:05:51.871Z,60.30
2022-10-18T03:08:40.242Z,65.80
2022-10-18T03:11:29.932Z,54.38
2022-10-18T03:14:09.979Z,68.75
2022-10-18T03:16:59.425Z,59.28
2022-10-18T03:19:50.216Z,63.22
2022-10-18T03:22:37.385Z,65.75
2022-10-18T03:25:15.790Z,60.17
2022-10-18T03:27:58.124Z,61.88
2022-10-18T03:30:42.156Z,70.28
2022-10-18T03:33:18.727Z,58.70
2022-10-18T03:36:01.189Z,59.92
2022-10-18T03:39:12.016Z,57.65
2022-10-18T03:41:54.963Z,69.47
2022-10-18T03:47:33.584Z,66.13
2022-10-18T03:50:04.264Z,73.55
2022-10-18T03:52:34.196Z,59.70
2022-10-18T03:55:10.177Z,60.00
2022-10-18T03:57:43.957Z,60.90
2022-10-18T04:00:15.235Z,62.22
2022-10-18T04:02:54.913Z,66.45
2022-10-18T04:05:32.159Z,64.28
2022-10-18T04:08:06.691Z,61.00
2022-10-18T04:10:39.335Z,57.50
2022-10-18T04:13:10.989Z,62.40
2022-10-18T04:15:41.496Z,64.32
2022-10-18T04:18:11.430Z,59.67
2022-10-18T04:20:44.424Z,63.05
2022-10-18T04:23:15.092Z,64.47
2022-10-18T04:28:17.236Z,66.60
2022-10-18T04:30:50.396Z,62.80
2022-10-18T04:33:23.560Z,67.93
2022-10-18T04:35:55.847Z,53.83
2022-10-18T04:38:27.369Z,63.47
2022-10-18T04:40:59.207Z,58.90
2022-10-18T04:43:28.966Z,56.75
2022-10-18T04:45:58.791Z,59.50
2022-10-18T04:48:29.442Z,62.13
2022-10-18T04:50:58.347Z,58.38
2022-10-18T04:53:30.007Z,53.90
2022-10-18T04:56:02.051Z,55.10
2022-10-18T04:58:30.687Z,57.92
2022-10-18T05:00:59.266Z,63.88
2022-10-18T05:03:31.847Z,59.92
2022-10-18T05:06:02.773Z,58.08
2022-10-18T05:08:37.577Z,59.85
2022-10-18T05:13:38.819Z,59.53
2022-10-18T05:16:08.481Z,54.22
2022-10-18T05:21:08.181Z,58.13
2022-10-18T05:23:39.332Z,65.75
2022-10-18T05:26:10.707Z,63.60
2022-10-18T05:28:41.057Z,60.70
2022-10-18T05:31:12.416Z,68.95
2022-10-18T05:33:41.645Z,71.22
2022-10-18T05:36:12.426Z,66.40
2022-10-18T05:38:44.070Z,75.57
2022-10-18T05:41:15.758Z,67.60
2022-10-18T05:43:44.658Z,72.68
2022-10-18T05:46:15.319Z,76.77
2022-10-18T05:48:45.286Z,80.47
2022-10-18T05:51:14.226Z,76.85
2022-10-18T05:56:14.653Z,78.10
2022-10-18T05:58:44.379Z,76.75
2022-10-18T06:01:14.198Z,86.93
2022-10-18T06:03:44.330Z,91.88
2022-10-18T06:06:17.792Z,81.60
2022-10-18T06:08:52.503Z,85.57
2022-10-18T06:11:23.696Z,96.25
2022-10-18T06:13:55.188Z,81.18
2022-10-18T06:16:31.261Z,98.97
2022-10-18T06:19:05.939Z,94.20
2022-10-18T06:21:38.871Z,96.22
2022-10-18T06:24:10.438Z,81.90
2022-10-18T06:26:45.261Z,77.57
2022-10-18T06:29:15.030Z,76.90
2022-10-18T06:31:46.421Z,80.63
2022-10-18T06:34:17.762Z,74.75
2022-10-18T06:36:47.151Z,76.45
2022-10-18T06:39:18.158Z,77.05
2022-10-18T06:41:52.963Z,73.00
2022-10-18T06:44:27.119Z,70.65
2022-10-18T06:47:00.191Z,66.20
2022-10-18T06:49:32.330Z,62.10
2022-10-18T06:52:08.524Z,67.32
2022-10-18T06:54:45.506Z,60.67
2022-10-18T06:57:27.740Z,67.60
2022-10-18T07:00:05.534Z,65.57
2022-10-18T07:02:57.371Z,63.97
2022-10-18T07:05:48.726Z,63.83
2022-10-18T07:08:28.351Z,65.38
2022-10-18T07:11:10.809Z,66.90
2022-10-18T07:14:05.465Z,68.25
2022-10-18T07:16:53.422Z,70.63
2022-10-18T07:26:16.950Z,70.68
2022-10-18T08:51:46.731Z,42.00
2022-10-18T09:40:40.649Z,32.83
2022-10-18T09:43:15.103Z,50.20
2022-10-18T09:45:46.034Z,41.22
2022-10-18T09:48:19.089Z,44.13
2022-10-18T10:10:49.176Z,40.67
2022-10-18T10:13:23.745Z,39.88
2022-10-18T10:32:14.144Z,31.60
2022-10-18T10:37:37.618Z,34.28
2022-10-18T10:40:22.073Z,38.13
2022-10-18T10:43:12.700Z,35.20
2022-10-18T10:46:02.800Z,34.50
2022-10-18T10:48:35.230Z,30.23
2022-10-18T10:51:06.740Z,36.67
2022-10-18T10:53:46.865Z,34.00
2022-10-18T10:56:19.151Z,34.63
2022-10-18T10:58:47.162Z,32.58
2022-10-18T11:01:25.137Z,33.85
2022-10-18T11:03:56.403Z,33.13
2022-10-18T11:06:51.356Z,31.33
2022-10-18T11:09:42.873Z,33.08
2022-10-18T11:12:22.154Z,35.65
2022-10-18T11:14:58.442Z,33.67
2022-10-18T11:17:33.732Z,32.83
2022-10-18T11:20:19.762Z,33.08
2022-10-18T11:23:03.139Z,33.75
2022-10-18T11:40:21.450Z,43.28
2022-10-18T11:42:57.037Z,50.22
2022-10-18T11:45:47.579Z,44.33
2022-10-18T11:48:42.927Z,48.55
2022-10-18T11:51:25.569Z,45.90
2022-10-18T11:54:11.771Z,35.15
2022-10-18T11:56:47.039Z,39.17
2022-10-18T11:59:29.983Z,36.30
2022-10-18T12:02:20.780Z,39.38
2022-10-18T12:05:05.288Z,39.30
2022-10-18T12:07:49.713Z,45.88
2022-10-18T12:10:31.554Z,38.80
2022-10-18T12:13:21.936Z,39.53
2022-10-18T12:15:53.824Z,37.50
2022-10-18T12:18:27.450Z,28.60
2022-10-18T12:20:58.696Z,24.48
2022-10-18T12:23:37.914Z,23.13
2022-10-18T12:26:10.022Z,20.42
2022-10-18T12:28:48.823Z,16.35
2022-10-18T12:31:23.874Z,16.08
2022-10-18T12:33:59.571Z,13.35
2022-10-18T12:37:28.486Z,14.50
2022-10-18T12:43:42.605Z,15.93
2022-10-18T12:46:14.527Z,13.25
2022-10-18T12:48:58.095Z,13.35
2022-10-18T12:51:39.043Z,9.68
2022-10-18T12:54:13.751Z,10.02
2022-10-18T12:56:57.463Z,9.27
2022-10-18T13:00:19.273Z,8.90
2022-10-18T13:03:32.593Z,10.52
2022-10-18T13:14:29.791Z,6.03
2022-10-18T13:17:14.188Z,9.20
2022-10-18T13:23:39.604Z,7.15
2022-10-18T13:26:59.175Z,8.15
2022-10-18T13:30:16.218Z,6.70
2022-10-18T13:32:59.872Z,7.18
2022-10-18T13:36:12.912Z,8.20
2022-10-18T13:39:08.007Z,10.48
2022-10-18T13:42:12.088Z,7.25
2022-10-18T13:44:41.884Z,7.75
2022-10-18T13:47:17.358Z,5.47
2022-10-18T13:50:11.985Z,5.05
2022-10-18T13:53:17.319Z,5.68
2022-10-18T13:56:12.404Z,6.07
2022-10-18T13:58:59.384Z,3.08
2022-10-18T14:01:54.833Z,6.97
2022-10-18T14:04:42.508Z,4.70
2022-10-18T14:07:13.350Z,3.65
2022-10-18T14:09:56.927Z,4.00
2022-10-18T14:12:43.793Z,3.05
2022-10-18T14:15:19.235Z,3.15
2022-10-18T14:17:53.377Z,4.50
2022-10-18T14:20:29.864Z,4.80
2022-10-18T14:23:06.134Z,6.97
2022-10-18T14:25:37.780Z,6.53
2022-10-18T14:28:16.313Z,8.63
2022-10-18T14:30:59.183Z,5.35
2022-10-18T14:33:31.155Z,5.30
2022-10-18T14:40:14.059Z,4.25
2022-10-18T14:42:50.842Z,4.90
2022-10-18T14:45:29.695Z,5.70
2022-10-18T14:48:32.426Z,8.68
2022-10-18T14:51:06.443Z,7.13
2022-10-18T14:53:55.925Z,5.78
2022-10-18T14:56:32.357Z,5.32
2022-10-18T14:59:14.890Z,5.63
2022-10-18T15:02:02.538Z,6.20
2022-10-18T15:07:36.653Z,7.70
2022-10-18T15:10:28.089Z,6.15
2022-10-18T15:13:10.979Z,6.03
2022-10-18T15:15:42.058Z,5.15
2022-10-18T15:18:28.465Z,7.38
2022-10-18T15:21:29.251Z,7.30
2022-10-18T15:24:28.903Z,10.55
2022-10-18T15:27:16.911Z,9.63
2022-10-18T15:29:50.437Z,12.68
2022-10-18T15:32:26.591Z,11.23
2022-10-18T15:35:09.447Z,13.60
2022-10-18T15:37:44.110Z,17.17
2022-10-18T15:40:39.345Z,13.98
2022-10-18T15:43:42.125Z,15.52
2022-10-18T15:46:32.494Z,14.80
2022-10-18T15:52:38.492Z,10.90
2022-10-18T15:55:57.519Z,10.30
2022-10-18T15:58:29.063Z,14.55
2022-10-18T16:01:08.202Z,109.18
2022-10-18T16:03:42.859Z,103.22
2022-10-18T16:06:26.308Z,131.60
2022-10-18T16:09:11.396Z,45.00
2022-10-18T16:11:54.306Z,82.75
2022-10-18T16:14:38.121Z,52.00
2022-10-18T16:17:18.487Z,70.45
2022-10-18T16:19:51.393Z,42.97
2022-10-18T16:22:23.250Z,49.38
2022-10-18T16:24:59.328Z,45.10
2022-10-18T16:27:32.352Z,28.45
2022-10-18T16:30:10.705Z,23.60
2022-10-18T16:32:43.662Z,13.07
2022-10-18T16:35:15.499Z,31.90
2022-10-18T16:37:48.945Z,31.13
2022-10-18T16:40:27.133Z,19.58
2022-10-18T16:42:56.225Z,24.73
2022-10-18T16:45:26.255Z,10.70
2022-10-18T16:47:58.854Z,18.30
2022-10-18T16:50:30.873Z,16.23
2022-10-18T16:53:02.288Z,14.55
2022-10-18T16:55:35.041Z,8.32
2022-10-18T16:58:04.326Z,12.27
2022-10-18T17:00:34.784Z,17.27
2022-10-18T17:03:07.322Z,11.10
2022-10-18T17:05:36.721Z,11.63
2022-10-18T17:08:08.567Z,18.50
2022-10-18T17:10:39.638Z,16.65
2022-10-18T17:13:11.047Z,13.73
2022-10-18T17:15:43.415Z,11.35
2022-10-18T17:18:15.817Z,9.73
2022-10-18T17:20:46.286Z,9.68
2022-10-18T17:23:17.490Z,10.60
2022-10-18T17:26:04.868Z,20.15
2022-10-18T17:28:40.126Z,15.50
2022-10-18T17:31:14.925Z,14.38
2022-10-18T17:33:51.039Z,12.63
2022-10-18T17:36:22.904Z,16.45
2022-10-18T17:38:57.001Z,14.90
2022-10-18T17:41:30.762Z,13.65
2022-10-18T17:44:03.989Z,15.43
2022-10-18T17:46:45.916Z,16.33
2022-10-18T17:49:27.855Z,30.27
2022-10-18T17:52:06.034Z,19.25
2022-10-18T17:54:54.727Z,16.05
2022-10-18T17:57:31.619Z,17.23
2022-10-18T18:00:08.388Z,18.45
2022-10-18T18:02:50.623Z,18.80
2022-10-18T18:06:15.298Z,16.67
2022-10-18T18:11:34.886Z,16.55
2022-10-18T18:14:18.468Z,19.13
2022-10-18T18:16:59.837Z,23.02
2022-10-18T18:19:36.746Z,21.38
2022-10-18T18:22:24.205Z,21.00
2022-10-18T18:25:01.318Z,21.30
2022-10-18T18:27:51.824Z,21.75
2022-10-18T18:30:32.575Z,20.67
2022-10-18T18:33:09.043Z,15.60
2022-10-18T18:35:47.944Z,17.05
2022-10-18T18:38:34.428Z,13.73
2022-10-18T18:41:09.442Z,13.68
2022-10-18T18:43:44.256Z,26.30
2022-10-18T18:46:15.420Z,19.48
2022-10-18T18:48:52.492Z,24.60
2022-10-18T18:51:27.869Z,22.75
2022-10-18T18:54:05.855Z,26.88
2022-10-18T18:56:36.586Z,33.30
2022-10-18T18:59:09.162Z,34.13
2022-10-18T19:01:41.614Z,29.30
2022-10-18T19:04:14.823Z,29.55
2022-10-18T19:06:46.741Z,33.88
2022-10-18T19:09:21.917Z,35.05
2022-10-18T19:11:53.256Z,30.52
2022-10-18T19:14:25.161Z,31.60
2022-10-18T19:16:57.630Z,32.45
2022-10-18T19:19:29.996Z,24.83
2022-10-18T19:22:03.990Z,24.85
2022-10-18T19:24:36.190Z,23.70
2022-10-18T19:27:08.764Z,22.92
2022-10-18T19:29:41.305Z,23.77
2022-10-18T19:32:13.441Z,20.88
2022-10-18T19:34:43.506Z,16.23
2022-10-18T19:42:18.577Z,21.85
2022-10-18T19:44:51.194Z,20.63
2022-10-18T19:47:20.663Z,23.10
2022-10-18T19:49:49.572Z,24.83
2022-10-18T19:52:18.058Z,25.70
2022-10-18T19:54:51.010Z,32.10
2022-10-18T19:57:19.499Z,25.13
2022-10-18T19:59:47.972Z,28.08
2022-10-18T20:02:19.486Z,23.88
2022-10-18T20:04:48.214Z,22.73
2022-10-18T20:07:17.602Z,30.25
2022-10-18T20:09:48.112Z,23.88
2022-10-18T20:12:16.510Z,23.50
2022-10-18T20:14:46.309Z,24.60
2022-10-18T20:17:17.340Z,28.27
2022-10-18T20:19:51.851Z,25.13
2022-10-18T20:22:21.845Z,30.45
2022-10-18T20:25:03.387Z,32.33
2022-10-18T20:27:37.403Z,23.02
2022-10-18T20:30:11.865Z,21.58
2022-10-18T20:32:45.117Z,21.80
2022-10-18T20:35:27.528Z,22.43
2022-10-18T20:38:01.127Z,29.65
2022-10-18T20:40:41.154Z,31.85
2022-10-18T20:43:15.542Z,30.98
2022-10-18T20:45:47.392Z,31.02
2022-10-18T20:48:21.325Z,34.67
2022-10-18T20:50:56.919Z,34.45
2022-10-18T20:53:31.558Z,32.50
2022-10-18T20:56:24.138Z,33.47
2022-10-18T20:59:08.490Z,38.75
2022-10-18T21:01:39.723Z,39.75
2022-10-18T21:04:11.753Z,36.35
2022-10-18T21:06:45.232Z,36.28
2022-10-18T21:09:16.699Z,38.85
2022-10-18T21:11:52.044Z,43.15
2022-10-18T21:14:57.551Z,36.80
2022-10-18T21:17:35.585Z,38.78
2022-10-18T21:20:10.891Z,35.95
2022-10-18T21:22:51.929Z,42.33
2022-10-18T21:25:38.873Z,40.30
2022-10-18T21:28:44.968Z,37.55
2022-10-18T21:31:26.365Z,44.88
2022-10-18T21:34:14.427Z,45.63
2022-10-18T21:36:54.791Z,45.63
2022-10-18T21:39:36.100Z,40.05
2022-10-18T21:42:20.647Z,53.05
2022-10-18T21:48:38.087Z,44.58
2022-10-18T21:51:43.684Z,47.60
2022-10-18T21:56:51.882Z,51.33
2022-10-18T21:59:25.539Z,43.03
2022-10-18T22:02:04.163Z,54.03
2022-10-18T22:04:36.880Z,52.75
2022-10-18T22:07:06.406Z,48.58
2022-10-18T22:09:35.354Z,48.97
2022-10-18T22:12:03.652Z,66.70
2022-10-18T22:14:34.133Z,49.97
2022-10-18T22:17:06.423Z,59.17
2022-10-18T22:19:34.954Z,56.20
2022-10-18T22:22:04.310Z,58.13
2022-10-18T22:27:09.151Z,68.38
2022-10-18T22:29:37.955Z,67.85
2022-10-18T22:32:09.577Z,68.65
2022-10-18T22:34:38.164Z,72.43
2022-10-18T22:37:08.296Z,65.32
2022-10-18T22:39:37.129Z,67.10
2022-10-18T22:42:06.584Z,76.83
2022-10-18T22:44:35.306Z,73.32
2022-10-18T22:47:04.495Z,63.70
2022-10-18T22:49:34.739Z,62.30
2022-10-18T22:52:06.832Z,67.95
2022-10-18T22:54:37.049Z,68.35
2022-10-18T22:57:05.617Z,68.57
2022-10-18T22:59:34.608Z,75.03
2022-10-18T23:02:04.638Z,76.38
2022-10-18T23:04:34.471Z,72.07
2022-10-18T23:07:05.288Z,76.07
2022-10-18T23:09:34.383Z,86.35
2022-10-18T23:12:02.778Z,80.10
2022-10-18T23:14:32.454Z,90.05
2022-10-18T23:17:00.900Z,83.72
2022-10-18T23:19:30.755Z,79.85
2022-10-18T23:21:59.053Z,82.88
2022-10-18T23:24:28.759Z,90.60
2022-10-18T23:26:57.096Z,84.25
2022-10-18T23:29:25.276Z,85.50
2022-10-18T23:31:54.035Z,75.15
2022-10-18T23:34:25.129Z,78.38
2022-10-18T23:36:53.709Z,64.78
2022-10-18T23:39:23.015Z,56.35
2022-10-18T23:41:52.918Z,59.03
2022-10-18T23:46:50.395Z,49.45
2022-10-18T23:49:20.142Z,48.08
2022-10-18T23:51:51.607Z,44.70
2022-10-18T23:54:20.745Z,40.45
2022-10-18T23:56:50.551Z,44.10
2022-10-18T23:59:21.594Z,54.63
